Decoded Metar for GCLA (LA PALMA in SPAIN) (IATA:SPC) | Meteo·Mobile Aviation Weather
aviador You're here:

GCLA Decoded Metar

LA PALMA in SPAIN
Report Time2019-03-22 14:30:00
UTC Time2019-03-22 14:50:56
Flight Rules vfr VFR
Wind030° at 14 kt
W.Decomp.*RWY 01: 12.5 kt HW 6.4 kt RCW
W.Rank030° ranks 3
Current wind is above 030° avg. (7.9)
Visibility9999 m
Phenomena:N/A
Clouds:Few 030 Hf
Broken 050 Hf
Expected CloudBase > 3,600 ft AGL from Temp-Dew spread
Ceiling5,000 ft
Temp20°C (ISA +5)
Dew Point11°C (56% RH)
AAT15.3°C
QNH1017 hPa
Density Alt755 ft
Elevation102 ft
Report Wrong Elevation
Raw Report
GCLA 221430Z 03014KT 360V060 9999 FEW030 BKN050 20/11 Q1017=

Extra information for GCLA:More info

Metar Taf Metar & Taf Last 4 Metars F.Rules Stats Wind Profile Meteogram Temp Stats Airport Information Weather charts Add Link Nearby VenuesMetar ALERT Operation Metar Decoded Social comments